createdAt,value
2022-11-05T00:02:23.588Z,100.00
2022-11-05T00:05:08.815Z,100.00
2022-11-05T00:07:59.130Z,100.00
2022-11-05T00:10:27.269Z,100.00
2022-11-05T00:13:13.314Z,100.00
2022-11-05T00:15:58.561Z,100.00
2022-11-05T00:18:25.156Z,100.00
2022-11-05T00:20:51.749Z,100.00
2022-11-05T00:23:37.088Z,100.00
2022-11-05T00:26:04.944Z,100.00
2022-11-05T00:28:31.883Z,100.00
2022-11-05T00:31:04.164Z,100.00
2022-11-05T00:33:31.132Z,100.00
2022-11-05T00:35:57.854Z,100.00
2022-11-05T00:38:24.737Z,100.00
2022-11-05T00:40:51.269Z,100.00
2022-11-05T00:43:36.631Z,100.00
2022-11-05T00:46:03.315Z,100.00
2022-11-05T00:48:48.433Z,100.00
2022-11-05T00:51:15.120Z,100.00
2022-11-05T00:53:41.710Z,100.00
2022-11-05T00:56:08.390Z,100.00
2022-11-05T00:58:34.946Z,100.00
2022-11-05T01:01:02.025Z,100.00
2022-11-05T01:03:35.607Z,100.00
2022-11-05T01:06:15.696Z,100.00
2022-11-05T01:08:43.730Z,100.00
2022-11-05T01:11:13.297Z,100.00
2022-11-05T01:13:40.468Z,100.00
2022-11-05T01:16:08.516Z,100.00
2022-11-05T01:18:36.705Z,100.00
2022-11-05T01:21:10.344Z,100.00
2022-11-05T01:23:36.884Z,100.00
2022-11-05T01:26:03.453Z,100.00
2022-11-05T01:28:30.102Z,100.00
2022-11-05T01:30:56.920Z,100.00
2022-11-05T01:33:23.801Z,100.00
2022-11-05T01:35:51.800Z,100.00
2022-11-05T01:38:18.601Z,100.00
2022-11-05T01:40:45.280Z,100.00
2022-11-05T01:43:19.002Z,100.00
2022-11-05T01:45:47.897Z,100.00
2022-11-05T01:48:17.077Z,100.00
2022-11-05T01:50:43.769Z,100.00
2022-11-05T01:53:16.228Z,100.00
2022-11-05T01:55:55.694Z,100.00
2022-11-05T01:58:24.630Z,100.00
2022-11-05T02:00:51.281Z,100.00
2022-11-05T02:03:18.501Z,100.00
2022-11-05T02:05:45.370Z,100.00
2022-11-05T02:08:16.737Z,100.00
2022-11-05T02:10:43.794Z,100.00
2022-11-05T02:13:10.664Z,100.00
2022-11-05T02:15:58.234Z,100.00
2022-11-05T02:18:24.774Z,100.00
2022-11-05T02:21:06.333Z,100.00
2022-11-05T02:23:50.978Z,100.00
2022-11-05T02:26:32.722Z,100.00
2022-11-05T02:29:14.439Z,100.00
2022-11-05T02:31:47.658Z,100.00
2022-11-05T02:34:23.260Z,100.00
2022-11-05T02:36:52.786Z,100.00
2022-11-05T02:39:43.837Z,100.00
2022-11-05T02:42:10.374Z,100.00
2022-11-05T02:44:55.940Z,100.00
2022-11-05T02:47:28.413Z,100.00
2022-11-05T02:50:06.975Z,100.00
2022-11-05T02:52:33.950Z,100.00
2022-11-05T02:55:09.757Z,100.00
2022-11-05T02:57:36.819Z,100.00
2022-11-05T03:00:26.580Z,100.00
2022-11-05T03:02:53.408Z,100.00
2022-11-05T03:05:23.469Z,100.00
2022-11-05T03:08:04.901Z,100.00
2022-11-05T03:10:40.738Z,100.00
2022-11-05T03:13:27.956Z,100.00
2022-11-05T03:16:00.608Z,100.00
2022-11-05T03:18:30.059Z,100.00
2022-11-05T03:21:05.551Z,100.00
2022-11-05T03:23:34.916Z,100.00
2022-11-05T03:26:07.661Z,100.00
2022-11-05T03:28:36.056Z,100.00
2022-11-05T03:31:03.929Z,100.00
2022-11-05T03:33:32.537Z,100.00
2022-11-05T03:36:02.689Z,100.00
2022-11-05T03:38:32.476Z,100.00
2022-11-05T03:41:01.369Z,100.00
2022-11-05T03:43:30.198Z,100.00
2022-11-05T03:45:59.681Z,100.00
2022-11-05T03:48:28.040Z,100.00
2022-11-05T03:50:57.454Z,100.00
2022-11-05T03:53:32.208Z,100.00
2022-11-05T03:56:19.073Z,100.00
2022-11-05T03:58:47.129Z,100.00
2022-11-05T04:01:14.463Z,100.00
2022-11-05T04:03:41.059Z,100.00
2022-11-05T04:06:28.460Z,100.00
2022-11-05T04:09:14.302Z,100.00
2022-11-05T04:11:59.621Z,100.00
2022-11-05T04:14:29.228Z,100.00
2022-11-05T04:17:09.131Z,100.00
2022-11-05T04:19:55.355Z,100.00
2022-11-05T04:22:41.548Z,100.00
2022-11-05T04:25:08.391Z,100.00
2022-11-05T04:27:35.498Z,100.00
2022-11-05T04:30:20.719Z,100.00
2022-11-05T04:33:05.897Z,100.00
2022-11-05T04:35:36.862Z,100.00
2022-11-05T04:38:04.826Z,100.00
2022-11-05T04:40:31.550Z,100.00
2022-11-05T04:42:58.661Z,100.00
2022-11-05T04:45:26.393Z,100.00
2022-11-05T04:47:53.464Z,100.00
2022-11-05T04:50:20.125Z,100.00
2022-11-05T04:52:46.996Z,100.00
2022-11-05T04:55:14.022Z,100.00
2022-11-05T04:57:40.624Z,100.00
2022-11-05T05:00:08.158Z,100.00
2022-11-05T05:02:36.211Z,100.00
2022-11-05T05:05:02.952Z,100.00
2022-11-05T05:07:29.629Z,100.00
2022-11-05T05:09:56.401Z,100.00
2022-11-05T05:12:23.216Z,100.00
2022-11-05T05:14:50.035Z,100.00
2022-11-05T05:17:16.721Z,100.00
2022-11-05T05:20:01.990Z,100.00
2022-11-05T05:22:28.988Z,100.00
2022-11-05T05:24:56.715Z,100.00
2022-11-05T05:27:24.281Z,100.00
2022-11-05T05:29:50.896Z,100.00
2022-11-05T05:32:17.463Z,100.00
2022-11-05T05:34:44.778Z,100.00
2022-11-05T05:37:11.391Z,100.00
2022-11-05T05:39:38.022Z,100.00
2022-11-05T05:42:04.821Z,100.00
2022-11-05T05:44:31.330Z,100.00
2022-11-05T05:46:57.925Z,100.00
2022-11-05T05:49:24.506Z,100.00
2022-11-05T05:51:51.396Z,100.00
2022-11-05T05:54:18.098Z,100.00
2022-11-05T05:56:45.052Z,100.00
2022-11-05T05:59:12.210Z,100.00
2022-11-05T06:01:39.007Z,100.00
2022-11-05T06:04:05.957Z,100.00
2022-11-05T06:06:32.709Z,100.00
2022-11-05T06:08:59.390Z,100.00
2022-11-05T06:11:25.931Z,100.00
2022-11-05T06:13:52.693Z,100.00
2022-11-05T06:16:19.521Z,100.00
2022-11-05T06:18:46.602Z,100.00
2022-11-05T06:21:14.544Z,100.00
2022-11-05T06:23:42.085Z,100.00
2022-11-05T06:26:10.154Z,100.00
2022-11-05T06:28:36.873Z,100.00
2022-11-05T06:31:04.337Z,100.00
2022-11-05T06:33:31.078Z,100.00
2022-11-05T06:36:04.946Z,100.00
2022-11-05T06:38:32.230Z,100.00
2022-11-05T06:40:59.798Z,100.00
2022-11-05T06:43:26.879Z,100.00
2022-11-05T06:45:53.852Z,100.00
2022-11-05T06:48:20.395Z,100.00
2022-11-05T06:50:47.146Z,100.00
2022-11-05T06:53:14.058Z,100.00
2022-11-05T06:55:40.865Z,100.00
2022-11-05T06:58:07.429Z,100.00
2022-11-05T07:00:34.019Z,100.00
2022-11-05T07:03:04.325Z,100.00
2022-11-05T07:05:31.353Z,100.00
2022-11-05T07:07:57.991Z,100.00
2022-11-05T07:10:27.080Z,100.00
2022-11-05T07:12:53.988Z,100.00
2022-11-05T07:15:20.635Z,100.00
2022-11-05T07:17:47.202Z,100.00
2022-11-05T07:20:13.819Z,100.00
2022-11-05T07:22:40.482Z,100.00
2022-11-05T07:25:07.366Z,100.00
2022-11-05T07:27:37.517Z,100.00
2022-11-05T07:30:04.535Z,100.00
2022-11-05T07:32:31.153Z,100.00
2022-11-05T07:34:57.752Z,100.00
2022-11-05T07:37:24.425Z,100.00
2022-11-05T07:39:51.007Z,100.00
2022-11-05T07:42:17.644Z,100.00
2022-11-05T07:44:44.552Z,100.00
2022-11-05T07:47:11.142Z,100.00
2022-11-05T07:49:37.743Z,100.00
2022-11-05T07:52:04.432Z,100.00
2022-11-05T07:54:31.066Z,100.00
2022-11-05T07:56:57.653Z,100.00
2022-11-05T07:59:24.212Z,100.00
2022-11-05T08:01:50.903Z,100.00
2022-11-05T08:04:17.634Z,100.00
2022-11-05T08:06:44.262Z,100.00
2022-11-05T08:09:10.859Z,100.00
2022-11-05T08:11:37.531Z,100.00
2022-11-05T08:14:04.496Z,100.00
2022-11-05T08:16:31.070Z,100.00
2022-11-05T08:18:57.731Z,100.00
2022-11-05T08:21:24.424Z,100.00
2022-11-05T08:23:51.044Z,100.00
2022-11-05T08:26:17.598Z,100.00
2022-11-05T08:28:44.114Z,100.00
2022-11-05T08:31:10.725Z,100.00
2022-11-05T08:33:37.399Z,100.00
2022-11-05T08:36:04.719Z,100.00
2022-11-05T08:38:31.401Z,100.00
2022-11-05T08:40:58.455Z,99.22
2022-11-05T08:43:25.474Z,68.73
2022-11-05T08:45:55.114Z,68.45
2022-11-05T08:48:21.962Z,68.67
2022-11-05T08:50:49.067Z,68.34
2022-11-05T08:53:16.151Z,66.21
2022-11-05T08:55:43.980Z,65.29
2022-11-05T08:58:18.044Z,64.04
2022-11-05T09:00:45.880Z,63.54
2022-11-05T09:03:12.907Z,63.40
2022-11-05T09:05:40.475Z,62.06
2022-11-05T09:08:11.605Z,60.68
2022-11-05T09:10:38.334Z,60.60
2022-11-05T09:13:05.378Z,60.03
2022-11-05T09:15:32.364Z,59.28
2022-11-05T09:17:59.379Z,58.87
2022-11-05T09:20:25.982Z,58.35
2022-11-05T09:22:52.655Z,58.35
2022-11-05T09:25:19.333Z,58.04
2022-11-05T09:27:47.197Z,57.88
2022-11-05T09:30:14.220Z,57.09
2022-11-05T09:32:40.887Z,57.24
2022-11-05T09:35:08.140Z,57.59
2022-11-05T09:37:35.724Z,57.17
2022-11-05T09:40:02.337Z,57.25
2022-11-05T09:42:35.976Z,57.37
2022-11-05T09:45:05.350Z,56.21
2022-11-05T09:47:43.591Z,54.38
2022-11-05T09:50:18.929Z,54.40
2022-11-05T09:52:45.627Z,53.13
2022-11-05T09:55:26.710Z,51.88
2022-11-05T09:57:56.871Z,52.93
2022-11-05T10:00:23.555Z,53.69
2022-11-05T10:02:52.608Z,54.12
2022-11-05T10:05:20.499Z,53.81
2022-11-05T10:07:49.978Z,51.57
2022-11-05T10:10:25.442Z,50.63
2022-11-05T10:12:54.244Z,49.28
2022-11-05T10:15:22.477Z,48.76
2022-11-05T10:17:51.529Z,47.24
2022-11-05T10:20:35.314Z,47.21
2022-11-05T10:23:08.866Z,45.64
2022-11-05T10:25:37.865Z,44.66
2022-11-05T10:28:04.849Z,43.10
2022-11-05T10:30:31.644Z,42.80
2022-11-05T10:33:00.243Z,42.68
2022-11-05T10:35:29.352Z,42.21
2022-11-05T10:55:10.848Z,39.90
2022-11-05T10:57:39.496Z,40.62
2022-11-05T11:00:15.106Z,41.28
2022-11-05T11:02:42.606Z,40.98
2022-11-05T11:05:11.200Z,40.38
2022-11-05T11:07:37.904Z,39.78
2022-11-05T11:10:04.833Z,39.63
2022-11-05T11:12:40.891Z,39.72
2022-11-05T11:15:15.262Z,39.85
2022-11-05T11:17:42.009Z,39.04
2022-11-05T11:20:18.079Z,39.06
2022-11-05T11:22:58.325Z,38.98
2022-11-05T11:25:26.169Z,38.97
2022-11-05T11:27:53.185Z,38.86
2022-11-05T11:30:20.336Z,38.97
2022-11-05T11:32:47.889Z,37.97
2022-11-05T11:35:21.684Z,38.45
2022-11-05T11:37:48.844Z,39.04
2022-11-05T11:40:29.332Z,38.43
2022-11-05T11:42:57.862Z,38.36
2022-11-05T11:45:29.784Z,38.06
2022-11-05T11:47:57.860Z,37.84
2022-11-05T11:50:33.250Z,37.94
2022-11-05T11:53:18.605Z,39.09
2022-11-05T11:56:08.313Z,38.62
2022-11-05T11:58:36.781Z,38.95
2022-11-05T12:01:26.532Z,39.11
2022-11-05T12:03:53.123Z,38.89
2022-11-05T12:06:34.917Z,39.13
2022-11-05T12:09:06.718Z,38.76
2022-11-05T12:11:45.003Z,38.78
2022-11-05T12:14:30.630Z,39.00
2022-11-05T12:17:02.997Z,39.05
2022-11-05T12:19:32.443Z,39.18
2022-11-05T12:22:21.666Z,39.51
2022-11-05T12:24:48.229Z,39.45
2022-11-05T12:27:14.830Z,39.67
2022-11-05T12:29:47.265Z,39.70
2022-11-05T12:32:13.843Z,39.67
2022-11-05T12:35:00.692Z,39.26
2022-11-05T12:37:45.915Z,39.28
2022-11-05T12:40:32.125Z,39.43
2022-11-05T12:43:12.231Z,39.58
2022-11-05T12:45:44.632Z,39.33
2022-11-05T12:48:11.194Z,39.50
2022-11-05T12:50:44.526Z,39.97
2022-11-05T12:53:11.291Z,39.81
2022-11-05T12:55:42.834Z,39.86
2022-11-05T12:58:15.217Z,39.94
2022-11-05T13:00:44.695Z,40.15
2022-11-05T13:03:23.672Z,40.54
2022-11-05T13:06:05.897Z,40.42
2022-11-05T13:08:41.678Z,40.88
2022-11-05T13:11:11.100Z,40.69
2022-11-05T13:13:47.658Z,40.73
2022-11-05T13:16:22.629Z,41.00
2022-11-05T13:18:51.586Z,41.23
2022-11-05T13:21:20.045Z,41.80
2022-11-05T13:23:49.813Z,42.19
2022-11-05T13:26:22.977Z,42.52
2022-11-05T13:29:11.638Z,42.80
2022-11-05T13:31:48.835Z,42.88
2022-11-05T13:34:15.464Z,43.17
2022-11-05T13:37:09.976Z,43.94
2022-11-05T13:39:48.957Z,44.45
2022-11-05T13:42:40.917Z,44.83
2022-11-05T13:45:33.736Z,45.34
2022-11-05T13:48:19.180Z,44.88
2022-11-05T13:51:03.820Z,45.63
2022-11-05T13:53:41.096Z,45.85
2022-11-05T13:56:20.092Z,46.12
2022-11-05T13:58:49.506Z,46.85
2022-11-05T14:01:28.597Z,47.09
2022-11-05T14:03:56.058Z,47.35
2022-11-05T14:06:27.844Z,46.85
2022-11-05T14:09:07.347Z,47.47
2022-11-05T14:11:36.251Z,47.96
2022-11-05T14:14:04.313Z,48.70
2022-11-05T14:16:47.406Z,49.46
2022-11-05T14:19:19.918Z,49.55
2022-11-05T14:21:57.166Z,50.27
2022-11-05T14:24:24.044Z,50.31
2022-11-05T14:26:59.671Z,50.15
2022-11-05T14:29:38.214Z,50.07
2022-11-05T14:32:24.120Z,49.38
2022-11-05T14:34:57.228Z,49.73
2022-11-05T14:37:33.118Z,50.01
2022-11-05T14:40:19.938Z,51.13
2022-11-05T14:42:50.358Z,52.17
2022-11-05T14:45:16.977Z,52.31
2022-11-05T14:47:51.696Z,53.20
2022-11-05T14:50:19.973Z,53.64
2022-11-05T14:52:54.103Z,54.45
2022-11-05T14:55:28.638Z,54.91
2022-11-05T14:57:55.379Z,55.20
2022-11-05T15:00:28.274Z,55.73
2022-11-05T15:03:02.292Z,55.90
2022-11-05T15:05:33.227Z,56.20
2022-11-05T15:08:19.738Z,56.62
2022-11-05T15:10:48.046Z,57.28
2022-11-05T15:13:31.337Z,57.32
2022-11-05T15:15:58.795Z,58.10
2022-11-05T15:18:30.586Z,58.33
2022-11-05T15:21:00.696Z,59.05
2022-11-05T15:23:36.229Z,59.45
2022-11-05T15:26:09.714Z,59.81
2022-11-05T15:28:49.473Z,60.63
2022-11-05T15:31:16.040Z,61.50
2022-11-05T15:33:44.141Z,61.82
2022-11-05T15:36:19.796Z,62.43
2022-11-05T15:39:08.199Z,63.38
2022-11-05T15:41:34.714Z,63.97
2022-11-05T15:44:02.771Z,64.58
2022-11-05T15:46:29.945Z,65.23
2022-11-05T15:49:07.115Z,65.81
2022-11-05T15:51:35.552Z,66.37
2022-11-05T15:56:53.090Z,67.67
2022-11-05T15:59:20.829Z,67.73
2022-11-05T16:01:52.587Z,67.81
2022-11-05T16:04:39.463Z,68.25
2022-11-05T16:07:10.879Z,68.90
2022-11-05T16:09:39.982Z,69.45
2022-11-05T16:12:13.821Z,69.93
2022-11-05T16:14:40.748Z,70.32
2022-11-05T16:17:26.729Z,70.71
2022-11-05T16:19:53.883Z,71.76
2022-11-05T16:22:20.795Z,71.37
2022-11-05T16:24:48.365Z,71.05
2022-11-05T16:27:19.719Z,71.28
2022-11-05T16:29:57.214Z,71.48
2022-11-05T16:32:30.558Z,71.46
2022-11-05T16:35:02.764Z,72.24
2022-11-05T16:37:31.377Z,71.54
2022-11-05T16:39:58.036Z,71.20
2022-11-05T16:42:24.574Z,71.01
2022-11-05T16:44:51.705Z,70.29
2022-11-05T16:47:18.825Z,69.95
2022-11-05T16:49:47.043Z,69.45
2022-11-05T16:52:13.709Z,69.73
2022-11-05T16:54:40.274Z,69.70
2022-11-05T16:57:13.268Z,69.05
2022-11-05T16:59:39.841Z,69.16
2022-11-05T17:02:09.772Z,69.15
2022-11-05T17:04:36.419Z,69.75
2022-11-05T17:07:03.049Z,70.31
2022-11-05T17:09:31.847Z,71.17
2022-11-05T17:12:00.742Z,72.17
2022-11-05T17:14:27.435Z,73.16
2022-11-05T17:16:54.227Z,73.22
2022-11-05T17:19:20.875Z,73.32
2022-11-05T17:21:47.473Z,73.54
2022-11-05T17:24:14.001Z,72.77
2022-11-05T17:26:40.610Z,72.62
2022-11-05T17:29:07.153Z,72.80
2022-11-05T17:31:33.709Z,72.79
2022-11-05T17:34:00.396Z,73.02
2022-11-05T17:36:27.006Z,72.77
2022-11-05T17:38:53.771Z,72.67
2022-11-05T17:41:21.461Z,72.77
2022-11-05T17:43:48.436Z,72.95
2022-11-05T17:46:16.080Z,72.34
2022-11-05T17:48:42.889Z,72.62
2022-11-05T17:51:15.012Z,70.81
2022-11-05T17:53:42.350Z,70.42
2022-11-05T17:56:09.731Z,69.46
2022-11-05T17:58:36.378Z,69.47
2022-11-05T18:01:03.137Z,67.99
2022-11-05T18:03:29.846Z,68.73
2022-11-05T18:06:06.284Z,69.26
2022-11-05T18:08:33.477Z,70.17
2022-11-05T18:11:00.036Z,72.67
2022-11-05T18:13:26.681Z,72.48
2022-11-05T18:15:53.352Z,71.40
2022-11-05T18:18:20.059Z,70.22
2022-11-05T18:20:46.703Z,70.09
2022-11-05T18:23:14.264Z,70.30
2022-11-05T18:25:41.547Z,69.75
2022-11-05T18:28:08.226Z,69.65
2022-11-05T18:30:37.249Z,69.56
2022-11-05T18:33:03.863Z,68.83
2022-11-05T18:35:30.509Z,68.18
2022-11-05T18:37:57.132Z,68.26
2022-11-05T18:40:23.723Z,68.92
2022-11-05T18:42:50.274Z,67.98
2022-11-05T18:45:16.952Z,67.59
2022-11-05T18:47:43.550Z,67.98
2022-11-05T18:50:10.469Z,67.31
2022-11-05T18:52:37.220Z,67.11
2022-11-05T18:55:04.028Z,66.33
2022-11-05T18:57:34.786Z,65.93
2022-11-05T19:00:01.571Z,66.55
2022-11-05T19:02:28.285Z,67.60
2022-11-05T19:05:26.634Z,67.65
2022-11-05T19:07:41.567Z,68.54
2022-11-05T19:10:08.488Z,68.67
2022-11-05T19:12:35.098Z,69.19
2022-11-05T19:15:03.001Z,69.15
2022-11-05T19:17:30.770Z,69.11
2022-11-05T19:19:57.413Z,69.29
2022-11-05T19:22:24.314Z,68.80
2022-11-05T19:24:50.923Z,69.26
2022-11-05T19:27:17.651Z,68.98
2022-11-05T19:29:44.271Z,69.76
2022-11-05T19:32:10.903Z,69.87
2022-11-05T19:34:37.620Z,70.62
2022-11-05T19:37:07.210Z,72.26
2022-11-05T19:39:34.359Z,74.17
2022-11-05T19:42:03.965Z,75.13
2022-11-05T19:44:31.480Z,74.66
2022-11-05T19:46:58.330Z,74.42
2022-11-05T19:49:25.082Z,75.68
2022-11-05T19:51:51.648Z,76.22
2022-11-05T19:54:18.491Z,76.51
2022-11-05T19:56:45.760Z,76.67
2022-11-05T19:59:12.439Z,77.09
2022-11-05T20:01:39.207Z,77.03
2022-11-05T20:04:06.005Z,76.08
2022-11-05T20:06:35.077Z,75.58
2022-11-05T20:11:56.771Z,75.66
2022-11-05T20:14:24.477Z,75.96
2022-11-05T20:16:51.196Z,75.08
2022-11-05T20:19:18.995Z,74.55
2022-11-05T20:21:45.880Z,74.19
2022-11-05T20:24:14.445Z,73.98
2022-11-05T20:26:44.032Z,74.27
2022-11-05T20:29:10.957Z,74.08
2022-11-05T20:31:37.597Z,74.75
2022-11-05T20:34:04.176Z,74.74
2022-11-05T20:36:30.764Z,74.89
2022-11-05T20:38:58.432Z,74.14
2022-11-05T20:41:25.875Z,74.65
2022-11-05T20:43:52.446Z,74.45
2022-11-05T20:46:20.199Z,74.34
2022-11-05T20:48:46.838Z,74.35
2022-11-05T20:51:18.842Z,75.11
2022-11-05T20:53:46.400Z,76.10
2022-11-05T20:56:17.232Z,76.31
2022-11-05T20:58:44.106Z,76.98
2022-11-05T21:01:11.932Z,77.59
2022-11-05T21:03:38.589Z,77.54
2022-11-05T21:06:06.408Z,76.95
2022-11-05T21:08:33.591Z,76.90
2022-11-05T21:11:00.310Z,76.75
2022-11-05T21:13:27.398Z,76.30
2022-11-05T21:15:54.905Z,76.05
2022-11-05T21:18:22.309Z,76.11
2022-11-05T21:20:48.921Z,75.47
2022-11-05T21:23:15.883Z,75.32
2022-11-05T21:25:43.064Z,75.05
2022-11-05T21:28:11.242Z,74.93
2022-11-05T21:30:39.210Z,75.16
2022-11-05T21:33:05.844Z,74.66
2022-11-05T21:35:32.812Z,74.31
2022-11-05T21:37:59.446Z,74.50
2022-11-05T21:40:26.253Z,73.84
2022-11-05T21:42:52.809Z,74.09
2022-11-05T21:45:19.489Z,73.14
2022-11-05T21:47:46.107Z,73.24
2022-11-05T21:50:12.718Z,73.67
2022-11-05T21:52:57.794Z,73.38
2022-11-05T21:55:42.934Z,73.89
2022-11-05T21:58:33.169Z,74.08
2022-11-05T22:01:00.478Z,74.62
2022-11-05T22:03:27.106Z,74.72
2022-11-05T22:05:54.118Z,74.57
2022-11-05T22:08:20.777Z,74.42
2022-11-05T22:10:47.348Z,74.09
2022-11-05T22:13:13.948Z,73.81
2022-11-05T22:15:40.545Z,73.86
2022-11-05T22:18:07.159Z,73.88
2022-11-05T22:20:33.761Z,73.53
2022-11-05T22:23:00.345Z,73.94
2022-11-05T22:25:26.964Z,73.96
2022-11-05T22:27:53.543Z,73.96
2022-11-05T22:30:20.083Z,73.86
2022-11-05T22:32:46.679Z,73.28
2022-11-05T22:35:13.330Z,73.33
2022-11-05T22:37:39.878Z,73.67
2022-11-05T22:40:06.746Z,72.80
2022-11-05T22:42:33.354Z,72.83
2022-11-05T22:44:59.993Z,73.00
2022-11-05T22:47:26.565Z,72.80
2022-11-05T22:49:53.135Z,72.98
2022-11-05T22:52:19.709Z,72.62
2022-11-05T22:54:47.698Z,72.25
2022-11-05T22:57:14.246Z,72.34
2022-11-05T22:59:40.865Z,72.39
2022-11-05T23:02:09.979Z,71.80
2022-11-05T23:04:37.278Z,71.90
2022-11-05T23:07:27.340Z,71.97
2022-11-05T23:10:13.383Z,71.36
2022-11-05T23:12:42.483Z,71.46
2022-11-05T23:15:11.476Z,71.32
2022-11-05T23:17:56.550Z,71.13
2022-11-05T23:20:41.857Z,70.79
2022-11-05T23:23:30.733Z,70.25
2022-11-05T23:26:20.671Z,70.68
2022-11-05T23:28:47.273Z,71.20
2022-11-05T23:31:32.278Z,71.44
2022-11-05T23:33:58.825Z,71.44
2022-11-05T23:36:43.921Z,71.78
2022-11-05T23:39:10.515Z,71.06
2022-11-05T23:41:55.392Z,71.23
2022-11-05T23:44:40.601Z,71.42
2022-11-05T23:47:25.842Z,71.69
2022-11-05T23:49:52.373Z,72.84
2022-11-05T23:52:18.944Z,73.24
2022-11-05T23:54:45.527Z,73.31
2022-11-05T23:57:12.129Z,73.41
2022-11-05T23:59:38.712Z,74.49
